createdAt,value
2023-05-23T00:00:41.557Z,93.65
2023-05-23T00:02:44.799Z,93.71
2023-05-23T00:04:49.439Z,92.68
2023-05-23T00:06:53.505Z,93.57
2023-05-23T00:08:57.616Z,93.65
2023-05-23T00:11:00.682Z,94.06
2023-05-23T00:13:03.853Z,93.36
2023-05-23T00:15:09.917Z,92.52
2023-05-23T00:17:13.183Z,93.15
2023-05-23T00:19:17.241Z,92.71
2023-05-23T00:21:21.898Z,93.52
2023-05-23T00:23:25.359Z,93.75
2023-05-23T00:25:34.364Z,93.24
2023-05-23T00:27:37.504Z,93.84
2023-05-23T00:29:40.633Z,93.49
2023-05-23T00:31:46.388Z,93.89
2023-05-23T00:33:50.620Z,94.60
2023-05-23T00:35:53.867Z,94.03
2023-05-23T00:37:58.282Z,94.44
2023-05-23T00:40:01.434Z,94.94
2023-05-23T00:42:06.452Z,94.57
2023-05-23T00:44:11.190Z,93.44
2023-05-23T00:46:14.410Z,93.44
2023-05-23T00:48:17.502Z,94.19
2023-05-23T00:50:20.907Z,94.58
2023-05-23T00:52:23.978Z,94.92
2023-05-23T00:54:31.504Z,94.04
2023-05-23T00:56:34.789Z,93.88
2023-05-23T00:58:37.860Z,94.69
2023-05-23T01:00:41.105Z,94.97
2023-05-23T01:02:46.260Z,95.71
2023-05-23T01:04:54.225Z,95.91
2023-05-23T01:06:57.918Z,95.72
2023-05-23T01:09:02.971Z,95.92
2023-05-23T01:11:13.216Z,95.93
2023-05-23T01:13:23.325Z,95.79
2023-05-23T01:15:30.512Z,95.74
2023-05-23T01:17:37.645Z,95.85
2023-05-23T01:19:53.325Z,95.58
2023-05-23T01:21:57.098Z,96.74
2023-05-23T01:24:24.348Z,96.16
2023-05-23T01:26:48.255Z,96.56
2023-05-23T01:28:56.916Z,96.17
2023-05-23T01:31:03.030Z,96.92
2023-05-23T01:33:06.294Z,97.00
2023-05-23T01:35:10.028Z,96.65
2023-05-23T01:37:14.732Z,97.01
2023-05-23T01:39:17.894Z,96.76
2023-05-23T01:41:21.273Z,95.86
2023-05-23T01:43:25.907Z,95.92
2023-05-23T01:45:30.901Z,96.61
2023-05-23T01:47:34.404Z,96.91
2023-05-23T01:49:38.658Z,96.94
2023-05-23T01:51:42.284Z,97.26
2023-05-23T01:53:45.458Z,97.78
2023-05-23T01:55:49.339Z,97.63
2023-05-23T01:57:53.376Z,97.21
2023-05-23T01:59:56.604Z,97.48
2023-05-23T02:02:01.255Z,97.82
2023-05-23T02:04:05.012Z,97.75
2023-05-23T02:06:08.215Z,98.35
2023-05-23T02:08:11.315Z,98.58
2023-05-23T02:10:14.637Z,98.55
2023-05-23T02:12:17.717Z,98.75
2023-05-23T02:14:21.061Z,99.23
2023-05-23T02:16:26.193Z,98.69
2023-05-23T02:18:30.782Z,98.22
2023-05-23T02:20:34.047Z,99.04
2023-05-23T02:22:37.149Z,99.32
2023-05-23T02:24:40.340Z,99.41
2023-05-23T02:26:43.419Z,98.33
2023-05-23T02:28:46.651Z,99.33
2023-05-23T02:30:51.835Z,99.50
2023-05-23T02:32:55.123Z,99.16
2023-05-23T02:34:59.741Z,100.00
2023-05-23T02:37:02.908Z,100.00
2023-05-23T02:39:06.631Z,99.73
2023-05-23T02:41:09.926Z,99.80
2023-05-23T02:43:13.311Z,99.95
2023-05-23T02:45:16.348Z,99.52
2023-05-23T02:47:19.448Z,100.00
2023-05-23T02:49:22.586Z,99.91
2023-05-23T02:51:28.615Z,100.00
2023-05-23T02:53:31.881Z,100.00
2023-05-23T02:55:35.135Z,100.00
2023-05-23T02:57:38.184Z,100.00
2023-05-23T02:59:41.271Z,99.90
2023-05-23T03:01:44.413Z,98.46
2023-05-23T03:03:47.569Z,98.18
2023-05-23T03:05:51.582Z,98.76
2023-05-23T03:07:56.075Z,98.89
2023-05-23T03:09:59.661Z,99.79
2023-05-23T03:12:02.715Z,99.67
2023-05-23T03:14:06.501Z,100.00
2023-05-23T03:16:09.629Z,100.00
2023-05-23T03:18:12.707Z,100.00
2023-05-23T03:20:15.749Z,100.00
2023-05-23T03:22:18.808Z,100.00
2023-05-23T03:24:23.256Z,100.00
2023-05-23T03:26:26.306Z,99.71
2023-05-23T03:28:29.347Z,100.00
2023-05-23T03:30:32.512Z,100.00
2023-05-23T03:32:36.012Z,100.00
2023-05-23T03:34:39.061Z,100.00
2023-05-23T03:36:42.110Z,99.88
2023-05-23T03:38:45.454Z,99.76
2023-05-23T03:40:50.069Z,100.00
2023-05-23T03:43:02.951Z,100.00
2023-05-23T03:45:07.513Z,100.00
2023-05-23T03:47:10.886Z,100.00
2023-05-23T03:49:16.671Z,100.00
2023-05-23T03:51:19.759Z,100.00
2023-05-23T03:53:22.917Z,100.00
2023-05-23T03:55:26.047Z,100.00
2023-05-23T03:57:30.867Z,100.00
2023-05-23T03:59:34.059Z,99.80
2023-05-23T04:01:41.352Z,100.00
2023-05-23T04:03:45.019Z,100.00
2023-05-23T04:05:48.517Z,99.91
2023-05-23T04:07:52.559Z,100.00
2023-05-23T04:09:55.866Z,100.00
2023-05-23T04:11:59.205Z,100.00
2023-05-23T04:14:05.071Z,100.00
2023-05-23T04:16:08.424Z,100.00
2023-05-23T04:18:11.529Z,100.00
2023-05-23T04:20:14.781Z,100.00
2023-05-23T04:22:18.168Z,100.00
2023-05-23T04:24:23.259Z,100.00
2023-05-23T04:26:26.435Z,100.00
2023-05-23T04:28:30.180Z,100.00
2023-05-23T04:30:34.657Z,100.00
2023-05-23T04:32:38.305Z,100.00
2023-05-23T04:34:42.136Z,100.00
2023-05-23T04:36:45.702Z,100.00
2023-05-23T04:38:49.366Z,99.72
2023-05-23T04:40:53.254Z,100.00
2023-05-23T04:43:21.950Z,100.00
2023-05-23T04:45:28.602Z,100.00
2023-05-23T04:47:56.563Z,99.44
2023-05-23T04:50:18.634Z,100.00
2023-05-23T04:52:21.991Z,100.00
2023-05-23T04:54:25.175Z,99.75
2023-05-23T04:56:29.777Z,99.43
2023-05-23T04:58:33.656Z,100.00
2023-05-23T05:00:40.979Z,100.00
2023-05-23T05:02:44.736Z,99.29
2023-05-23T05:04:49.318Z,100.00
2023-05-23T05:06:52.610Z,99.62
2023-05-23T05:08:55.975Z,99.35
2023-05-23T05:10:59.145Z,100.00
2023-05-23T05:13:02.360Z,100.00
2023-05-23T05:15:18.416Z,99.97
2023-05-23T05:17:25.153Z,99.80
2023-05-23T05:19:40.309Z,98.91
2023-05-23T05:21:44.789Z,99.62
2023-05-23T05:23:47.886Z,99.93
2023-05-23T05:25:53.221Z,98.24
2023-05-23T05:27:56.934Z,99.91
2023-05-23T05:30:04.925Z,99.60
2023-05-23T05:32:10.317Z,98.18
2023-05-23T05:34:13.736Z,99.15
2023-05-23T05:36:16.931Z,98.74
2023-05-23T05:38:22.968Z,98.64
2023-05-23T05:40:26.176Z,98.67
2023-05-23T05:42:29.346Z,98.04
2023-05-23T05:44:32.475Z,97.52
2023-05-23T05:46:35.902Z,96.40
2023-05-23T05:48:39.353Z,98.13
2023-05-23T05:50:45.665Z,96.60
2023-05-23T05:52:49.323Z,95.92
2023-05-23T05:54:53.788Z,96.95
2023-05-23T05:56:56.993Z,96.68
2023-05-23T05:59:00.806Z,97.25
2023-05-23T06:01:05.745Z,97.60
2023-05-23T06:03:08.996Z,97.30
2023-05-23T06:05:18.980Z,97.26
2023-05-23T06:07:22.796Z,97.31
2023-05-23T06:09:25.993Z,95.94
2023-05-23T06:11:30.460Z,96.88
2023-05-23T06:13:34.128Z,96.95
2023-05-23T06:15:37.263Z,95.48
2023-05-23T06:17:40.643Z,95.48
2023-05-23T06:19:44.237Z,96.73
2023-05-23T06:21:47.520Z,97.31
2023-05-23T06:23:52.394Z,95.31
2023-05-23T06:25:55.456Z,95.47
2023-05-23T06:28:00.760Z,96.03
2023-05-23T06:30:04.332Z,95.30
2023-05-23T06:32:08.157Z,95.33
2023-05-23T06:34:11.432Z,94.23
2023-05-23T06:36:15.660Z,94.80
2023-05-23T06:38:18.783Z,94.43
2023-05-23T06:40:21.912Z,93.41
2023-05-23T06:42:26.469Z,93.76
2023-05-23T06:44:41.767Z,93.42
2023-05-23T06:46:47.710Z,93.36
2023-05-23T06:49:02.693Z,92.65
2023-05-23T06:51:11.654Z,93.43
2023-05-23T06:53:18.843Z,92.53
2023-05-23T06:55:23.789Z,92.87
2023-05-23T06:57:26.886Z,94.13
2023-05-23T06:59:30.032Z,93.78
2023-05-23T07:01:34.502Z,92.58
2023-05-23T07:03:38.397Z,93.56
2023-05-23T07:05:43.372Z,93.70
2023-05-23T07:07:47.289Z,91.37
2023-05-23T07:09:51.062Z,92.04
2023-05-23T07:11:55.889Z,93.70
2023-05-23T07:14:00.553Z,92.83
2023-05-23T07:16:12.478Z,92.25
2023-05-23T07:18:27.861Z,92.60
2023-05-23T07:20:34.340Z,93.19
2023-05-23T07:22:46.281Z,92.25
2023-05-23T07:24:49.631Z,93.26
2023-05-23T07:26:53.314Z,92.52
2023-05-23T07:28:56.433Z,92.93
2023-05-23T07:30:59.612Z,92.11
2023-05-23T07:33:03.262Z,92.97
2023-05-23T07:35:08.801Z,91.21
2023-05-23T07:37:11.938Z,91.99
2023-05-23T07:39:22.195Z,91.72
2023-05-23T07:41:26.946Z,90.49
2023-05-23T07:43:30.061Z,90.31
2023-05-23T07:45:33.285Z,89.64
2023-05-23T07:47:37.157Z,89.24
2023-05-23T07:49:40.428Z,89.50
2023-05-23T07:51:44.922Z,87.32
2023-05-23T07:53:48.335Z,87.39
2023-05-23T07:55:51.596Z,87.28
2023-05-23T07:57:56.539Z,87.30
2023-05-23T08:00:01.102Z,86.27
2023-05-23T08:02:06.391Z,87.39
2023-05-23T08:04:09.573Z,85.40
2023-05-23T08:06:20.654Z,83.56
2023-05-23T08:08:25.477Z,80.45
2023-05-23T08:10:29.951Z,82.19
2023-05-23T08:12:40.214Z,82.72
2023-05-23T08:14:52.208Z,82.96
2023-05-23T08:17:19.189Z,81.92
2023-05-23T08:19:23.043Z,80.30
2023-05-23T08:21:26.945Z,80.72
2023-05-23T08:23:31.750Z,81.01
2023-05-23T08:25:34.969Z,80.99
2023-05-23T08:27:38.577Z,82.32
2023-05-23T08:29:52.720Z,83.15
2023-05-23T08:31:56.477Z,81.83
2023-05-23T08:34:00.616Z,81.98
2023-05-23T08:36:05.612Z,83.10
2023-05-23T08:38:09.251Z,82.83
2023-05-23T08:40:20.118Z,82.61
2023-05-23T08:42:30.547Z,82.68
2023-05-23T08:44:34.151Z,83.45
2023-05-23T08:46:42.442Z,84.88
2023-05-23T08:48:52.224Z,84.65
2023-05-23T08:50:56.092Z,84.62
2023-05-23T08:53:01.272Z,85.02
2023-05-23T08:55:06.255Z,84.71
2023-05-23T08:57:11.565Z,84.59
2023-05-23T08:59:18.985Z,82.65
2023-05-23T09:01:23.618Z,82.38
2023-05-23T09:03:30.173Z,83.36
2023-05-23T09:05:43.660Z,80.82
2023-05-23T09:07:48.131Z,81.91
2023-05-23T09:09:51.989Z,82.28
2023-05-23T09:11:56.651Z,83.10
2023-05-23T09:14:01.242Z,82.50
2023-05-23T09:16:06.277Z,81.44
2023-05-23T09:18:15.665Z,80.75
2023-05-23T09:20:19.324Z,79.06
2023-05-23T09:22:29.746Z,78.12
2023-05-23T09:24:41.549Z,78.80
2023-05-23T09:26:48.004Z,78.61
2023-05-23T09:28:51.613Z,79.12
2023-05-23T09:31:00.931Z,77.57
2023-05-23T09:33:05.896Z,77.30
2023-05-23T09:35:12.479Z,78.41
2023-05-23T09:37:19.040Z,79.22
2023-05-23T09:39:22.285Z,77.15
2023-05-23T09:41:26.681Z,78.10
2023-05-23T09:43:30.194Z,77.98
2023-05-23T09:45:34.358Z,78.56
2023-05-23T09:47:39.979Z,78.08
2023-05-23T09:49:44.782Z,76.62
2023-05-23T09:51:58.578Z,76.08
2023-05-23T09:54:01.745Z,77.27
2023-05-23T09:56:05.331Z,77.06
2023-05-23T09:58:09.330Z,75.89
2023-05-23T10:00:14.156Z,76.68
2023-05-23T10:02:19.595Z,75.65
2023-05-23T10:04:24.474Z,76.12
2023-05-23T10:06:31.034Z,73.89
2023-05-23T10:08:38.128Z,74.34
2023-05-23T10:11:32.383Z,74.24
2023-05-23T10:13:35.905Z,73.75
2023-05-23T10:15:41.029Z,72.08
2023-05-23T10:17:54.977Z,73.12
2023-05-23T10:20:02.567Z,72.99
2023-05-23T10:22:08.313Z,73.84
2023-05-23T10:24:12.893Z,73.60
2023-05-23T10:26:16.908Z,71.61
2023-05-23T10:28:20.947Z,69.36
2023-05-23T10:30:24.209Z,71.33
2023-05-23T10:32:27.635Z,70.17
2023-05-23T10:34:35.688Z,70.72
2023-05-23T10:36:46.138Z,69.91
2023-05-23T10:38:53.262Z,70.07
2023-05-23T10:41:02.688Z,69.97
2023-05-23T10:43:11.836Z,68.96
2023-05-23T10:45:19.345Z,69.78
2023-05-23T10:47:29.565Z,68.39
2023-05-23T10:49:40.086Z,69.96
2023-05-23T10:51:45.706Z,69.59
2023-05-23T10:53:54.987Z,68.05
2023-05-23T10:55:58.788Z,69.98
2023-05-23T10:58:12.565Z,67.66
2023-05-23T11:00:17.314Z,67.84
2023-05-23T11:02:23.874Z,68.64
2023-05-23T11:04:28.033Z,67.21
2023-05-23T11:06:34.084Z,68.81
2023-05-23T11:08:48.879Z,66.87
2023-05-23T11:10:56.724Z,66.65
2023-05-23T11:13:07.899Z,63.51
2023-05-23T11:15:24.024Z,63.34
2023-05-23T11:17:34.170Z,63.88
2023-05-23T11:19:37.495Z,65.92
2023-05-23T11:21:41.281Z,65.82
2023-05-23T11:23:45.964Z,66.39
2023-05-23T11:25:51.510Z,66.84
2023-05-23T11:27:55.303Z,66.69
2023-05-23T11:30:04.306Z,66.51
2023-05-23T11:32:16.882Z,66.66
2023-05-23T11:34:21.778Z,66.99
2023-05-23T11:36:25.113Z,65.50
2023-05-23T11:38:28.592Z,67.64
2023-05-23T11:40:34.551Z,66.33
2023-05-23T11:42:43.134Z,66.47
2023-05-23T11:44:50.357Z,65.22
2023-05-23T11:47:04.007Z,66.31
2023-05-23T11:49:12.137Z,65.59
2023-05-23T11:51:16.293Z,66.85
2023-05-23T11:53:21.613Z,65.63
2023-05-23T11:55:25.085Z,67.03
2023-05-23T11:57:29.896Z,66.09
2023-05-23T11:59:33.174Z,65.92
2023-05-23T12:01:38.448Z,66.75
2023-05-23T12:03:51.040Z,66.47
2023-05-23T12:05:55.992Z,66.05
2023-05-23T12:08:02.293Z,66.66
2023-05-23T12:10:06.744Z,66.04
2023-05-23T12:12:10.094Z,67.11
2023-05-23T12:14:17.695Z,67.44
2023-05-23T12:16:22.394Z,67.48
2023-05-23T12:18:26.970Z,66.50
2023-05-23T12:20:35.276Z,67.19
2023-05-23T12:22:38.716Z,67.08
2023-05-23T12:24:47.134Z,68.37
2023-05-23T12:26:51.767Z,67.92
2023-05-23T12:28:55.115Z,67.29
2023-05-23T12:31:13.525Z,67.55
2023-05-23T12:33:16.959Z,67.73
2023-05-23T12:35:20.176Z,68.50
2023-05-23T12:37:24.545Z,67.46
2023-05-23T12:39:29.320Z,67.42
2023-05-23T12:41:33.913Z,68.62
2023-05-23T12:43:39.752Z,69.05
2023-05-23T12:45:43.526Z,69.30
2023-05-23T12:47:48.358Z,68.31
2023-05-23T12:49:51.557Z,69.18
2023-05-23T12:51:54.779Z,68.39
2023-05-23T12:53:58.439Z,69.05
2023-05-23T12:56:02.706Z,69.19
2023-05-23T12:58:06.140Z,68.65
2023-05-23T13:00:10.951Z,68.84
2023-05-23T13:02:14.285Z,68.46
2023-05-23T13:04:19.353Z,69.06
2023-05-23T13:06:22.775Z,67.46
2023-05-23T13:08:25.988Z,67.99
2023-05-23T13:10:31.824Z,68.52
2023-05-23T13:12:35.363Z,69.08
2023-05-23T13:14:38.542Z,68.27
2023-05-23T13:16:42.026Z,67.67
2023-05-23T13:18:45.270Z,68.15
2023-05-23T13:20:49.972Z,70.16
2023-05-23T13:22:53.034Z,69.67
2023-05-23T13:24:56.456Z,70.64
2023-05-23T13:26:59.594Z,66.67
2023-05-23T13:29:04.229Z,68.26
2023-05-23T13:31:07.549Z,68.44
2023-05-23T13:33:12.086Z,66.70
2023-05-23T13:35:15.488Z,65.48
2023-05-23T13:37:20.124Z,66.72
2023-05-23T13:39:23.603Z,65.28
2023-05-23T13:41:27.555Z,64.66
2023-05-23T13:43:31.250Z,65.75
2023-05-23T13:45:34.643Z,65.84
2023-05-23T13:47:37.882Z,66.77
2023-05-23T13:49:41.508Z,67.58
2023-05-23T13:51:45.613Z,66.83
2023-05-23T13:53:50.417Z,67.02
2023-05-23T13:55:54.955Z,67.15
2023-05-23T13:57:58.259Z,66.66
2023-05-23T14:00:02.763Z,67.67
2023-05-23T14:02:11.944Z,68.04
2023-05-23T14:04:15.331Z,67.99
2023-05-23T14:06:18.934Z,65.99
2023-05-23T14:08:22.219Z,66.03
2023-05-23T14:10:27.098Z,65.83
2023-05-23T14:12:30.685Z,65.57
2023-05-23T14:14:34.090Z,65.99
2023-05-23T14:16:37.452Z,65.36
2023-05-23T14:18:40.659Z,66.29
2023-05-23T14:20:43.929Z,65.75
2023-05-23T14:22:47.243Z,65.67
2023-05-23T14:24:51.093Z,65.36
2023-05-23T14:26:56.212Z,65.61
2023-05-23T14:28:59.676Z,65.96
2023-05-23T14:31:02.812Z,66.05
2023-05-23T14:33:07.877Z,67.06
2023-05-23T14:35:13.395Z,67.16
2023-05-23T14:37:16.499Z,67.64
2023-05-23T14:39:19.883Z,66.56
2023-05-23T14:41:23.041Z,67.10
2023-05-23T14:43:28.695Z,66.80
2023-05-23T14:47:35.490Z,66.00
2023-05-23T14:49:38.684Z,66.56
2023-05-23T14:51:49.748Z,67.02
2023-05-23T14:53:53.869Z,64.81
2023-05-23T14:55:57.223Z,63.96
2023-05-23T14:58:01.076Z,65.27
2023-05-23T15:00:06.724Z,66.36
2023-05-23T15:02:09.964Z,65.32
2023-05-23T15:04:13.195Z,66.27
2023-05-23T15:06:16.384Z,65.11
2023-05-23T15:08:19.604Z,65.00
2023-05-23T15:10:22.790Z,66.83
2023-05-23T15:12:26.860Z,66.81
2023-05-23T15:14:32.840Z,66.27
2023-05-23T15:16:37.496Z,66.30
2023-05-23T15:18:42.116Z,66.24
2023-05-23T15:20:45.827Z,66.48
2023-05-23T15:22:49.063Z,67.60
2023-05-23T15:24:52.386Z,67.29
2023-05-23T15:27:02.223Z,67.38
2023-05-23T15:29:12.509Z,67.05
2023-05-23T15:31:15.618Z,65.97
2023-05-23T15:33:20.238Z,65.99
2023-05-23T15:35:23.864Z,65.44
2023-05-23T15:37:27.048Z,66.23
2023-05-23T15:39:30.462Z,66.47
2023-05-23T15:41:33.577Z,67.40
2023-05-23T15:43:38.020Z,65.65
2023-05-23T15:45:42.451Z,65.62
2023-05-23T15:47:45.704Z,66.07
2023-05-23T15:49:50.900Z,66.82
2023-05-23T15:51:55.338Z,67.03
2023-05-23T15:54:01.360Z,67.16
2023-05-23T15:56:04.916Z,66.64
2023-05-23T15:58:09.487Z,67.23
2023-05-23T16:00:13.936Z,67.35
2023-05-23T16:02:18.991Z,67.42
2023-05-23T16:04:23.429Z,68.25
2023-05-23T16:06:28.287Z,67.09
2023-05-23T16:08:31.990Z,67.26
2023-05-23T16:10:35.665Z,66.33
2023-05-23T16:12:38.898Z,66.79
2023-05-23T16:14:42.382Z,67.88
2023-05-23T16:16:45.607Z,67.90
2023-05-23T16:18:50.088Z,68.49
2023-05-23T16:20:53.253Z,68.19
2023-05-23T16:22:57.718Z,68.58
2023-05-23T16:25:00.931Z,68.25
2023-05-23T16:27:04.519Z,68.63
2023-05-23T16:29:08.483Z,68.92
2023-05-23T16:31:16.728Z,68.94
2023-05-23T16:33:20.051Z,69.10
2023-05-23T16:35:23.279Z,69.07
2023-05-23T16:37:26.355Z,69.70
2023-05-23T16:39:30.811Z,70.13
2023-05-23T16:41:33.959Z,70.00
2023-05-23T16:43:37.089Z,71.02
2023-05-23T16:45:41.966Z,72.37
2023-05-23T16:47:45.432Z,70.75
2023-05-23T16:49:48.672Z,70.80
2023-05-23T16:51:51.828Z,70.96
2023-05-23T16:53:54.953Z,70.87
2023-05-23T16:56:04.410Z,71.16
2023-05-23T16:58:07.523Z,70.96
2023-05-23T17:00:11.884Z,71.63
2023-05-23T17:02:15.867Z,70.82
2023-05-23T17:04:20.500Z,71.81
2023-05-23T17:06:23.834Z,71.57
2023-05-23T17:08:26.990Z,71.05
2023-05-23T17:10:30.092Z,72.13
2023-05-23T17:12:34.646Z,73.07
2023-05-23T17:14:37.739Z,72.33
2023-05-23T17:16:41.096Z,72.27
2023-05-23T17:18:44.255Z,72.24
2023-05-23T17:20:47.482Z,72.71
2023-05-23T17:22:50.748Z,73.14
2023-05-23T17:24:53.905Z,72.74
2023-05-23T17:26:57.093Z,73.17
2023-05-23T17:29:01.647Z,72.98
2023-05-23T17:31:04.874Z,74.51
2023-05-23T17:33:08.098Z,74.57
2023-05-23T17:35:11.859Z,74.68
2023-05-23T17:37:15.165Z,73.57
2023-05-23T17:39:18.212Z,74.38
2023-05-23T17:41:23.053Z,74.33
2023-05-23T17:43:26.326Z,74.46
2023-05-23T17:45:31.523Z,74.36
2023-05-23T17:47:34.691Z,74.91
2023-05-23T17:49:38.779Z,73.45
2023-05-23T17:51:41.904Z,73.11
2023-05-23T17:53:45.071Z,74.91
2023-05-23T17:55:48.625Z,73.17
2023-05-23T17:57:51.866Z,74.05
2023-05-23T17:59:55.202Z,73.02
2023-05-23T18:01:59.808Z,73.50
2023-05-23T18:04:03.093Z,72.60
2023-05-23T18:06:06.760Z,74.05
2023-05-23T18:08:09.862Z,73.55
2023-05-23T18:10:13.181Z,74.12
2023-05-23T18:12:17.696Z,74.87
2023-05-23T18:14:21.523Z,75.33
2023-05-23T18:16:24.587Z,75.68
2023-05-23T18:18:29.150Z,74.21
2023-05-23T18:20:32.273Z,74.93
2023-05-23T18:22:35.384Z,76.58
2023-05-23T18:24:38.577Z,76.07
2023-05-23T18:26:43.112Z,75.65
2023-05-23T18:28:46.262Z,76.53
2023-05-23T18:30:49.725Z,76.67
2023-05-23T18:32:52.969Z,77.56
2023-05-23T18:34:57.620Z,77.51
2023-05-23T18:37:02.119Z,77.49
2023-05-23T18:39:05.512Z,77.63
2023-05-23T18:41:13.213Z,78.38
2023-05-23T18:43:17.833Z,78.73
2023-05-23T18:45:21.259Z,79.20
2023-05-23T18:47:24.563Z,77.96
2023-05-23T18:49:27.738Z,78.32
2023-05-23T18:51:32.337Z,79.56
2023-05-23T18:53:35.691Z,79.39
2023-05-23T18:55:39.212Z,80.25
2023-05-23T18:57:42.405Z,79.10
2023-05-23T18:59:45.564Z,79.50
2023-05-23T19:01:48.765Z,79.13
2023-05-23T19:03:52.106Z,79.42
2023-05-23T19:05:59.575Z,79.68
2023-05-23T19:08:04.449Z,79.65
2023-05-23T19:10:08.435Z,79.77
2023-05-23T19:12:11.694Z,79.33
2023-05-23T19:14:15.104Z,79.96
2023-05-23T19:16:20.443Z,79.90
2023-05-23T19:18:23.706Z,79.78
2023-05-23T19:20:26.925Z,80.00
2023-05-23T19:22:38.988Z,79.98
2023-05-23T19:24:48.073Z,79.61
2023-05-23T19:26:51.317Z,80.10
2023-05-23T19:28:54.978Z,80.38
2023-05-23T19:30:58.114Z,80.60
2023-05-23T19:33:01.781Z,80.99
2023-05-23T19:35:05.656Z,80.80
2023-05-23T19:37:09.446Z,81.12
2023-05-23T19:39:13.437Z,81.31
2023-05-23T19:41:20.152Z,81.74
2023-05-23T19:43:23.421Z,81.72
2023-05-23T19:45:26.840Z,80.96
2023-05-23T19:47:31.041Z,81.63
2023-05-23T19:49:34.378Z,81.67
2023-05-23T19:51:37.886Z,81.50
2023-05-23T19:53:41.638Z,81.29
2023-05-23T19:55:44.786Z,81.12
2023-05-23T19:57:49.429Z,81.19
2023-05-23T19:59:52.792Z,80.95
2023-05-23T20:01:56.053Z,81.13
2023-05-23T20:03:59.502Z,81.05
2023-05-23T20:06:02.657Z,80.83
2023-05-23T20:08:05.856Z,81.00
2023-05-23T20:10:09.948Z,80.58
2023-05-23T20:12:13.072Z,80.64
2023-05-23T20:14:17.644Z,80.28
2023-05-23T20:16:20.859Z,80.35
2023-05-23T20:18:24.122Z,80.34
2023-05-23T20:20:27.325Z,81.00
2023-05-23T20:22:30.501Z,81.03
2023-05-23T20:24:33.837Z,80.49
2023-05-23T20:26:37.285Z,81.25
2023-05-23T20:28:41.148Z,81.12
2023-05-23T20:30:45.989Z,80.33
2023-05-23T20:32:53.085Z,79.97
2023-05-23T20:34:56.309Z,80.19
2023-05-23T20:36:59.652Z,80.25
2023-05-23T20:39:02.759Z,80.40
2023-05-23T20:41:07.423Z,80.48
2023-05-23T20:43:10.630Z,80.34
2023-05-23T20:45:13.862Z,80.99
2023-05-23T20:47:18.825Z,80.74
2023-05-23T20:49:22.477Z,80.67
2023-05-23T20:51:25.799Z,80.77
2023-05-23T20:53:29.841Z,80.96
2023-05-23T20:55:35.380Z,81.60
2023-05-23T20:57:38.510Z,81.18
2023-05-23T20:59:41.836Z,81.09
2023-05-23T21:01:45.070Z,81.40
2023-05-23T21:03:49.628Z,81.14
2023-05-23T21:05:52.774Z,81.70
2023-05-23T21:07:55.833Z,81.01
2023-05-23T21:10:02.119Z,80.91
2023-05-23T21:12:05.873Z,80.90
2023-05-23T21:14:08.900Z,81.01
2023-05-23T21:16:14.741Z,80.78
2023-05-23T21:18:18.029Z,80.98
2023-05-23T21:20:22.573Z,81.46
2023-05-23T21:22:25.677Z,80.87
2023-05-23T21:24:29.632Z,81.46
2023-05-23T21:26:32.872Z,80.46
2023-05-23T21:28:36.061Z,80.24
2023-05-23T21:30:40.408Z,80.52
2023-05-23T21:32:44.797Z,80.69
2023-05-23T21:34:48.159Z,81.19
2023-05-23T21:36:52.717Z,81.67
2023-05-23T21:38:55.867Z,80.48
2023-05-23T21:40:59.089Z,81.39
2023-05-23T21:43:02.210Z,81.54
2023-05-23T21:45:06.118Z,81.75
2023-05-23T21:47:09.363Z,82.86
2023-05-23T21:49:12.491Z,82.03
2023-05-23T21:51:15.583Z,83.39
2023-05-23T21:53:20.145Z,84.02
2023-05-23T21:55:23.222Z,82.26
2023-05-23T21:57:26.303Z,83.49
2023-05-23T21:59:29.417Z,82.95
2023-05-23T22:01:33.057Z,82.76
2023-05-23T22:03:36.662Z,82.83
2023-05-23T22:05:40.008Z,83.32
2023-05-23T22:07:43.106Z,82.60
2023-05-23T22:09:47.513Z,81.37
2023-05-23T22:11:50.662Z,81.91
2023-05-23T22:13:53.730Z,80.02
2023-05-23T22:15:56.848Z,80.61
2023-05-23T22:18:00.103Z,80.11
2023-05-23T22:20:05.208Z,79.52
2023-05-23T22:22:09.871Z,79.47
2023-05-23T22:24:13.083Z,80.94
2023-05-23T22:26:17.705Z,80.55
2023-05-23T22:28:20.792Z,81.38
2023-05-23T22:30:24.038Z,81.03
2023-05-23T22:32:27.218Z,81.79
2023-05-23T22:34:31.006Z,81.42
2023-05-23T22:36:34.236Z,79.23
2023-05-23T22:38:37.512Z,80.56
2023-05-23T22:40:40.756Z,79.17
2023-05-23T22:42:45.360Z,81.00
2023-05-23T22:44:48.553Z,78.40
2023-05-23T22:46:52.121Z,79.33
2023-05-23T22:48:56.161Z,79.86
2023-05-23T22:50:59.607Z,80.62
2023-05-23T22:53:03.490Z,79.73
2023-05-23T22:55:08.257Z,78.86
2023-05-23T22:57:11.417Z,77.84
2023-05-23T22:59:16.082Z,78.90
2023-05-23T23:01:19.278Z,76.99
2023-05-23T23:03:22.643Z,76.08
2023-05-23T23:05:25.976Z,75.15
2023-05-23T23:07:29.038Z,76.96
2023-05-23T23:09:32.106Z,76.16
2023-05-23T23:11:35.244Z,76.08
2023-05-23T23:13:38.332Z,74.12
2023-05-23T23:15:44.015Z,76.00
2023-05-23T23:17:47.098Z,73.86
2023-05-23T23:19:51.597Z,73.14
2023-05-23T23:21:54.718Z,74.36
2023-05-23T23:23:58.445Z,73.90
2023-05-23T23:26:01.532Z,75.58
2023-05-23T23:28:04.905Z,74.37
2023-05-23T23:30:09.233Z,74.61
2023-05-23T23:32:13.729Z,74.49
2023-05-23T23:34:16.951Z,72.59
2023-05-23T23:36:20.052Z,72.13
2023-05-23T23:38:23.118Z,71.81
2023-05-23T23:40:26.449Z,73.17
2023-05-23T23:42:29.554Z,72.40
2023-05-23T23:44:32.624Z,73.41
2023-05-23T23:46:35.715Z,72.70
2023-05-23T23:48:40.193Z,72.01
2023-05-23T23:50:43.408Z,72.89
2023-05-23T23:52:46.701Z,72.60
2023-05-23T23:54:49.768Z,71.97
2023-05-23T23:56:52.831Z,71.54
2023-05-23T23:58:55.907Z,74.83
